Time;durP1;ratioP1;P1;durP2;ratioP2;P2;SDS_P1;SDS_P2;PMS_P1;PMS_P2;Temp;Humidity;BMP_temperature;BMP_pressure;BME280_temperature;BME280_humidity;BME280_pressure;Samples;Min_cycle;Max_cycle;Signal;HPM_P1;HPM_P2
2023/11/05 00:01:10;;;;;;;9.30;9.20;;;9.30;49.30;;;;;;5073763;28;20470;-85
2023/11/05 00:03:38;;;;;;;10.10;9.80;;;9.40;99.90;;;;;;5071781;28;20542;-85
2023/11/05 00:06:07;;;;;;;9.83;9.63;;;9.40;99.90;;;;;;5076631;28;20447;-85
2023/11/05 00:08:35;;;;;;;9.80;9.60;;;9.40;1.00;;;;;;5077047;28;20447;-83
2023/11/05 00:11:04;;;;;;;9.43;9.23;;;9.40;99.90;;;;;;5079873;28;20474;-83
2023/11/05 00:13:33;;;;;;;10.07;9.87;;;9.30;99.90;;;;;;5082841;28;20456;-84
2023/11/05 00:16:02;;;;;;;10.07;9.83;;;9.40;73.30;;;;;;5081084;28;20467;-84
2023/11/05 00:18:30;;;;;;;9.60;9.40;;;9.40;1.00;;;;;;5082549;28;20482;-85
2023/11/05 00:20:59;;;;;;;9.30;9.10;;;9.40;1.00;;;;;;5079599;28;20479;-85
2023/11/05 00:23:27;;;;;;;9.40;9.30;;;9.50;1.00;;;;;;5077595;28;20481;-84
2023/11/05 00:25:55;;;;;;;9.90;9.50;;;9.40;1.00;;;;;;5096701;28;20512;-82
2023/11/05 00:28:24;;;;;;;9.00;8.80;;;9.50;99.90;;;;;;5076728;28;20980;-89
2023/11/05 00:30:54;;;;;;;9.20;9.00;;;9.50;1.00;;;;;;5084333;28;20479;-85
2023/11/05 00:33:23;;;;;;;9.40;9.20;;;9.40;99.90;;;;;;5072216;28;20435;-86
2023/11/05 00:35:52;;;;;;;9.40;9.20;;;9.40;99.90;;;;;;5072235;28;20471;-85
2023/11/05 00:38:20;;;;;;;9.03;8.93;;;9.40;99.90;;;;;;5076853;28;20471;-86
2023/11/05 00:40:48;;;;;;;9.30;9.20;;;9.40;99.90;;;;;;5086432;28;20481;-84
2023/11/05 00:43:17;;;;;;;9.50;9.40;;;9.40;99.90;;;;;;5080920;28;20477;-84
2023/11/05 00:45:45;;;;;;;8.80;8.70;;;9.50;95.20;;;;;;5082165;28;20491;-85
2023/11/05 00:48:15;;;;;;;8.80;8.70;;;9.50;99.90;;;;;;5077384;28;20470;-85
2023/11/05 00:50:43;;;;;;;9.50;9.30;;;9.50;99.90;;;;;;5079652;28;20486;-86
2023/11/05 00:53:11;;;;;;;9.50;9.30;;;9.50;41.90;;;;;;5074942;28;20828;-85
2023/11/05 00:55:40;;;;;;;8.97;8.77;;;9.60;1.00;;;;;;5080072;28;20948;-84
2023/11/05 00:58:08;;;;;;;9.17;9.00;;;9.60;1.00;;;;;;5076095;28;20474;-84
2023/11/05 01:00:36;;;;;;;9.30;9.20;;;9.60;1.00;;;;;;5084665;28;20533;-88
2023/11/05 01:03:05;;;;;;;9.20;9.10;;;9.60;1.00;;;;;;5072223;28;20479;-87
2023/11/05 01:05:35;;;;;;;9.07;8.97;;;9.50;1.00;;;;;;5078127;28;20454;-85
2023/11/05 01:08:03;;;;;;;9.33;9.07;;;9.50;32.00;;;;;;5080224;28;20947;-88
2023/11/05 01:10:31;;;;;;;9.20;9.10;;;9.50;11.70;;;;;;5079796;28;20466;-86
2023/11/05 01:13:00;;;;;;;9.00;8.87;;;9.50;52.60;;;;;;5074476;28;20461;-86
2023/11/05 01:15:28;;;;;;;9.53;9.33;;;9.50;1.00;;;;;;5074413;28;20458;-85
2023/11/05 01:17:56;;;;;;;9.30;9.10;;;9.50;1.00;;;;;;5081409;28;20484;-87
2023/11/05 01:20:25;;;;;;;9.30;9.10;;;9.50;1.00;;;;;;5078195;28;20474;-88
2023/11/05 01:22:55;;;;;;;8.77;8.63;;;9.50;1.00;;;;;;5071980;28;20454;-88
2023/11/05 01:25:23;;;;;;;9.20;9.00;;;9.50;1.00;;;;;;5080673;28;20467;-85
2023/11/05 01:27:52;;;;;;;9.00;8.90;;;9.50;1.00;;;;;;5074446;28;20538;-86
2023/11/05 01:30:20;;;;;;;9.20;9.00;;;9.50;1.00;;;;;;5077971;28;20471;-87
2023/11/05 01:32:48;;;;;;;8.57;8.47;;;9.50;1.00;;;;;;5077448;28;20461;-87
2023/11/05 01:35:17;;;;;;;9.07;8.97;;;9.50;1.00;;;;;;5073682;28;21013;-86
2023/11/05 01:37:45;;;;;;;9.00;8.80;;;9.60;1.00;;;;;;5078118;28;20485;-86
2023/11/05 01:40:15;;;;;;;8.80;8.70;;;9.60;1.00;;;;;;5074591;28;20467;-88
2023/11/05 01:42:43;;;;;;;9.50;9.20;;;9.50;1.00;;;;;;5076781;28;20447;-87
2023/11/05 01:45:12;;;;;;;8.73;8.50;;;9.50;99.90;;;;;;5078016;28;20463;-87
2023/11/05 01:47:40;;;;;;;9.10;8.80;;;9.60;99.90;;;;;;5072703;28;20462;-87
2023/11/05 01:50:11;;;;;;;8.70;8.60;;;9.50;99.90;;;;;;5073066;28;20879;-85
2023/11/05 01:52:39;;;;;;;8.90;8.80;;;9.50;99.90;;;;;;5074760;28;20473;-85
2023/11/05 01:55:09;;;;;;;9.40;9.20;;;9.60;99.90;;;;;;5073414;28;20455;-87
2023/11/05 01:57:39;;;;;;;9.30;9.10;;;9.60;99.90;;;;;;5072900;28;20455;-88
2023/11/05 02:00:10;;;;;;;8.83;8.70;;;9.60;99.90;;;;;;5084279;28;20482;-87
2023/11/05 02:02:40;;;;;;;9.10;8.80;;;9.60;99.90;;;;;;5072220;28;20981;-88
2023/11/05 02:05:11;;;;;;;9.30;9.10;;;9.60;99.90;;;;;;5072997;28;20474;-87
2023/11/05 02:07:40;;;;;;;9.00;8.70;;;9.60;99.90;;;;;;5082270;28;20454;-87
2023/11/05 02:10:09;;;;;;;8.83;8.63;;;9.60;99.90;;;;;;5083041;28;20550;-83
2023/11/05 02:12:39;;;;;;;9.00;8.80;;;9.60;99.90;;;;;;5080815;28;20456;-86
2023/11/05 02:15:08;;;;;;;9.40;9.10;;;9.70;99.90;;;;;;5088255;28;20439;-87
2023/11/05 02:17:36;;;;;;;8.70;8.40;;;9.70;98.10;;;;;;5073667;28;20526;-85
2023/11/05 02:20:06;;;;;;;8.83;8.57;;;9.70;99.90;;;;;;5078215;28;20487;-87
2023/11/05 02:22:36;;;;;;;8.03;7.93;;;9.70;97.50;;;;;;5073182;28;20459;-85
2023/11/05 02:25:06;;;;;;;8.00;7.80;;;9.70;33.50;;;;;;5080114;28;20481;-85
2023/11/05 02:27:35;;;;;;;8.30;8.10;;;9.70;91.00;;;;;;5078965;28;20459;-85
2023/11/05 02:30:03;;;;;;;8.20;7.90;;;9.70;3.70;;;;;;5071891;28;20972;-85
2023/11/05 02:32:32;;;;;;;8.40;8.20;;;9.70;23.80;;;;;;5080634;28;20494;-85
2023/11/05 02:35:00;;;;;;;8.30;8.10;;;9.80;30.80;;;;;;5076181;28;20463;-84
2023/11/05 02:37:29;;;;;;;8.13;8.03;;;9.80;1.00;;;;;;5082319;28;20462;-86
2023/11/05 02:39:57;;;;;;;8.70;8.27;;;9.80;1.00;;;;;;5084248;28;20474;-86
2023/11/05 02:42:27;;;;;;;8.63;8.33;;;9.80;1.00;;;;;;5087606;28;20542;-84
2023/11/05 02:44:55;;;;;;;8.17;8.07;;;9.80;1.00;;;;;;5081208;28;20451;-86
2023/11/05 02:47:24;;;;;;;8.50;8.30;;;9.80;1.00;;;;;;5081031;28;20952;-84
2023/11/05 02:49:52;;;;;;;8.97;8.67;;;9.80;1.00;;;;;;5071991;28;20498;-86
2023/11/05 02:52:21;;;;;;;8.90;8.50;;;9.90;1.00;;;;;;5072650;28;20510;-89
2023/11/05 02:54:49;;;;;;;8.80;8.50;;;9.90;1.00;;;;;;5078078;28;20485;-86
2023/11/05 02:57:20;;;;;;;9.07;8.50;;;9.90;1.00;;;;;;5072735;28;20518;-86
2023/11/05 02:59:51;;;;;;;8.60;8.30;;;9.90;1.00;;;;;;5082405;28;20473;-87
2023/11/05 03:02:19;;;;;;;8.67;8.33;;;9.90;1.00;;;;;;5075803;28;20459;-88
2023/11/05 03:04:48;;;;;;;8.27;8.13;;;9.90;1.00;;;;;;5072430;28;20535;-87
2023/11/05 03:07:16;;;;;;;8.43;8.23;;;9.90;1.00;;;;;;5073844;28;20458;-87
2023/11/05 03:09:45;;;;;;;8.33;8.13;;;10.00;1.00;;;;;;5076089;28;20451;-86
2023/11/05 03:12:13;;;;;;;9.33;8.83;;;10.00;1.00;;;;;;5084046;28;20442;-86
2023/11/05 03:14:42;;;;;;;9.30;8.73;;;10.00;1.00;;;;;;5071729;28;20454;-87
2023/11/05 03:17:12;;;;;;;8.90;8.40;;;10.00;1.00;;;;;;5078305;28;20982;-88
2023/11/05 03:19:40;;;;;;;8.30;8.20;;;10.00;1.00;;;;;;5078310;28;20475;-85
2023/11/05 03:22:08;;;;;;;9.10;8.80;;;10.00;1.00;;;;;;5072555;28;21009;-86
2023/11/05 03:24:37;;;;;;;8.73;8.53;;;10.00;1.00;;;;;;5073749;28;20458;-86
2023/11/05 03:27:07;;;;;;;8.20;8.10;;;10.00;1.00;;;;;;5074416;28;20474;-85
2023/11/05 03:29:35;;;;;;;8.00;7.80;;;10.00;1.00;;;;;;5076624;28;20448;-87
2023/11/05 03:32:04;;;;;;;8.53;8.33;;;10.00;1.00;;;;;;5087401;28;20541;-85
2023/11/05 03:34:34;;;;;;;8.30;8.10;;;10.00;1.00;;;;;;5078722;28;20978;-87
2023/11/05 03:37:03;;;;;;;8.13;8.00;;;10.00;1.00;;;;;;5084262;28;20990;-87
2023/11/05 03:39:31;;;;;;;8.10;7.90;;;10.00;1.00;;;;;;5084036;28;20466;-88
2023/11/05 03:41:59;;;;;;;8.37;8.07;;;10.00;1.00;;;;;;5072210;28;20447;-86
2023/11/05 03:44:28;;;;;;;8.10;7.90;;;10.00;1.00;;;;;;5079719;28;20970;-88
2023/11/05 03:46:57;;;;;;;8.30;8.00;;;10.10;1.00;;;;;;5074902;28;20450;-86
2023/11/05 03:49:25;;;;;;;8.30;7.90;;;10.10;1.00;;;;;;5076643;28;20447;-87
2023/11/05 03:51:55;;;;;;;8.27;7.87;;;10.00;1.00;;;;;;5071481;28;20467;-85
2023/11/05 03:54:23;;;;;;;7.60;7.40;;;10.00;1.00;;;;;;5070968;28;20448;-87
2023/11/05 03:56:51;;;;;;;7.97;7.67;;;10.10;1.00;;;;;;5071525;28;20447;-87
2023/11/05 03:59:20;;;;;;;7.90;7.57;;;10.00;1.00;;;;;;5074703;28;20467;-86
2023/11/05 04:01:49;;;;;;;8.50;8.00;;;10.10;1.00;;;;;;5075129;28;20480;-87
2023/11/05 04:04:18;;;;;;;8.00;7.60;;;10.00;1.00;;;;;;5071082;28;20874;-86
2023/11/05 04:06:46;;;;;;;7.90;7.53;;;10.00;1.00;;;;;;5074469;28;20470;-86
2023/11/05 04:09:16;;;;;;;8.03;7.73;;;10.00;1.00;;;;;;5079737;28;20451;-89
2023/11/05 04:11:45;;;;;;;7.80;7.50;;;10.00;1.00;;;;;;5076264;28;20481;-86
2023/11/05 04:14:13;;;;;;;8.17;7.80;;;10.10;1.00;;;;;;5083436;28;20451;-86
2023/11/05 04:16:41;;;;;;;7.90;7.50;;;10.00;1.00;;;;;;5077496;28;20448;-84
2023/11/05 04:19:12;;;;;;;8.00;7.70;;;10.00;1.00;;;;;;5072690;28;20482;-84
2023/11/05 04:21:40;;;;;;;8.03;7.73;;;10.10;1.00;;;;;;5071144;28;20507;-87
2023/11/05 04:24:09;;;;;;;8.00;7.70;;;10.00;1.00;;;;;;5076896;28;20446;-86
2023/11/05 04:26:38;;;;;;;8.20;8.00;;;10.10;1.00;;;;;;5076047;28;20455;-87
2023/11/05 04:29:07;;;;;;;8.30;8.10;;;10.10;1.00;;;;;;5071009;28;20463;-85
2023/11/05 04:31:35;;;;;;;8.00;7.80;;;10.10;1.00;;;;;;5078648;28;20474;-88
2023/11/05 04:34:04;;;;;;;8.30;8.00;;;10.10;1.00;;;;;;5074604;28;20447;-87
2023/11/05 04:36:39;;;;;;;8.27;7.70;;;10.10;1.00;;;;;;5077916;28;20491;-86
2023/11/05 04:39:07;;;;;;;8.30;8.00;;;10.10;1.00;;;;;;5071461;28;20496;-87
2023/11/05 04:41:38;;;;;;;8.77;8.40;;;10.10;1.00;;;;;;5074593;28;20559;-85
2023/11/05 04:44:06;;;;;;;8.63;8.30;;;10.10;1.00;;;;;;5078304;28;20551;-87
2023/11/05 04:46:39;;;;;;;8.90;8.60;;;10.10;1.00;;;;;;5076840;28;20889;-86
2023/11/05 04:49:08;;;;;;;8.70;8.30;;;10.10;1.00;;;;;;5074861;28;20458;-86
2023/11/05 04:51:36;;;;;;;8.20;8.00;;;10.10;1.00;;;;;;5070704;28;20664;-85
2023/11/05 04:54:05;;;;;;;8.27;8.17;;;10.20;1.00;;;;;;5080465;28;20446;-84
2023/11/05 04:56:33;;;;;;;9.00;8.70;;;10.10;1.00;;;;;;5074277;28;20558;-85
2023/11/05 04:59:03;;;;;;;8.40;7.90;;;10.10;1.00;;;;;;5077175;28;20459;-83
2023/11/05 05:01:31;;;;;;;8.40;8.20;;;10.10;1.00;;;;;;5075452;28;20522;-86
2023/11/05 05:04:00;;;;;;;8.10;7.90;;;10.10;1.00;;;;;;5074202;28;20494;-85
2023/11/05 05:06:28;;;;;;;8.57;8.23;;;10.10;1.00;;;;;;5076290;28;20451;-85
2023/11/05 05:08:56;;;;;;;8.70;8.20;;;10.10;1.00;;;;;;5075426;28;21159;-83
2023/11/05 05:11:25;;;;;;;8.50;8.20;;;10.10;1.00;;;;;;5082133;28;20520;-84
2023/11/05 05:13:53;;;;;;;8.60;8.40;;;10.10;1.00;;;;;;5084038;28;20473;-84
2023/11/05 05:16:23;;;;;;;8.50;8.20;;;10.10;1.00;;;;;;5082680;28;20457;-86
2023/11/05 05:18:51;;;;;;;8.33;8.23;;;10.20;1.00;;;;;;5075248;28;20447;-86
2023/11/05 05:21:19;;;;;;;8.70;8.40;;;10.10;1.00;;;;;;5075697;28;20483;-85
2023/11/05 05:23:48;;;;;;;8.90;8.70;;;10.10;1.00;;;;;;5074150;28;20512;-82
2023/11/05 05:26:17;;;;;;;8.20;8.00;;;10.10;1.00;;;;;;5082901;28;20455;-85
2023/11/05 05:28:48;;;;;;;8.30;8.20;;;10.10;1.00;;;;;;5075560;28;20465;-83
2023/11/05 05:31:16;;;;;;;8.57;8.27;;;10.00;1.00;;;;;;5080099;28;20574;-83
2023/11/05 05:33:46;;;;;;;8.77;8.47;;;10.10;1.00;;;;;;5074390;28;20455;-83
2023/11/05 05:36:15;;;;;;;8.30;8.20;;;10.00;1.00;;;;;;5076683;28;20447;-87
2023/11/05 05:38:43;;;;;;;8.90;8.60;;;10.00;1.00;;;;;;5089988;28;20471;-84
2023/11/05 05:41:11;;;;;;;8.77;8.20;;;10.00;1.00;;;;;;5082747;28;20517;-84
2023/11/05 05:43:39;;;;;;;8.43;8.17;;;10.00;1.00;;;;;;5074902;28;20458;-85
2023/11/05 05:46:09;;;;;;;8.20;8.00;;;10.00;1.00;;;;;;5078428;28;20451;-86
2023/11/05 05:48:38;;;;;;;8.30;8.00;;;10.00;1.00;;;;;;5074107;28;20469;-87
2023/11/05 05:51:12;;;;;;;8.60;8.30;;;10.00;1.00;;;;;;5081650;28;20463;-85
2023/11/05 05:53:40;;;;;;;9.00;8.87;;;10.00;1.00;;;;;;5097756;28;20749;-87
2023/11/05 05:56:12;;;;;;;8.10;8.00;;;10.00;1.00;;;;;;5077362;28;20446;-86
2023/11/05 05:58:41;;;;;;;8.33;8.00;;;10.00;1.00;;;;;;5071643;28;20463;-85
2023/11/05 06:01:10;;;;;;;8.30;8.10;;;10.00;1.00;;;;;;5078157;28;20482;-85
2023/11/05 06:03:38;;;;;;;8.20;8.00;;;10.00;1.00;;;;;;5081165;28;20451;-85
2023/11/05 06:06:09;;;;;;;8.40;8.00;;;10.00;1.00;;;;;;5075426;28;20511;-86
2023/11/05 06:08:38;;;;;;;8.43;8.23;;;10.00;1.00;;;;;;5073353;28;20472;-85
2023/11/05 06:11:06;;;;;;;8.37;8.03;;;10.10;1.00;;;;;;5080481;28;20567;-87
2023/11/05 06:13:37;;;;;;;7.90;7.60;;;10.00;1.00;;;;;;5079500;28;20462;-87
2023/11/05 06:16:05;;;;;;;7.60;7.50;;;10.00;1.00;;;;;;5086851;28;20451;-87
2023/11/05 06:18:34;;;;;;;7.70;7.50;;;10.00;1.00;;;;;;5084737;28;20451;-87
2023/11/05 06:21:02;;;;;;;7.50;7.40;;;10.00;1.00;;;;;;5079673;28;20478;-85
2023/11/05 06:23:32;;;;;;;8.20;7.90;;;10.00;1.00;;;;;;5080667;28;20455;-84
2023/11/05 06:26:01;;;;;;;8.43;8.13;;;10.00;1.00;;;;;;5071739;28;20447;-86
2023/11/05 06:28:29;;;;;;;8.10;7.90;;;10.00;1.00;;;;;;5078871;28;20473;-85
2023/11/05 06:30:57;;;;;;;7.73;7.57;;;10.00;1.00;;;;;;5081210;28;20485;-86
2023/11/05 06:33:26;;;;;;;8.00;7.83;;;10.00;1.00;;;;;;5083982;28;20977;-86
2023/11/05 06:35:54;;;;;;;8.10;7.90;;;10.10;1.00;;;;;;5079032;28;20455;-86
2023/11/05 06:38:23;;;;;;;7.80;7.60;;;10.10;3.10;;;;;;5079347;28;20465;-85
2023/11/05 06:40:53;;;;;;;8.17;7.93;;;10.10;18.50;;;;;;5079772;28;20498;-87
2023/11/05 06:43:21;;;;;;;7.93;7.83;;;10.10;42.00;;;;;;5078785;28;20462;-84
2023/11/05 06:45:50;;;;;;;8.27;8.07;;;10.10;69.60;;;;;;5082036;28;20495;-87
2023/11/05 06:48:19;;;;;;;7.87;7.73;;;10.10;99.30;;;;;;5079288;28;20454;-84
2023/11/05 06:50:47;;;;;;;7.97;7.87;;;10.10;99.90;;;;;;5072834;28;20475;-86
2023/11/05 06:53:18;;;;;;;7.90;7.70;;;10.10;99.90;;;;;;5080168;28;20970;-89
2023/11/05 06:55:47;;;;;;;7.97;7.83;;;10.10;99.90;;;;;;5082392;28;20883;-87
2023/11/05 06:58:17;;;;;;;8.70;8.30;;;10.10;99.90;;;;;;5078025;28;20469;-87
2023/11/05 07:00:46;;;;;;;7.67;7.53;;;10.00;99.90;;;;;;5074643;28;20607;-86
2023/11/05 07:03:14;;;;;;;8.30;8.10;;;10.10;99.90;;;;;;5077845;28;20450;-86
2023/11/05 07:05:42;;;;;;;8.47;8.27;;;10.00;99.90;;;;;;5080454;28;20545;-83
2023/11/05 07:08:11;;;;;;;8.63;8.40;;;10.10;99.90;;;;;;5072267;28;20459;-85
2023/11/05 07:10:39;;;;;;;8.73;8.53;;;10.10;99.90;;;;;;5081144;28;20506;-85
2023/11/05 07:13:08;;;;;;;9.10;8.70;;;10.10;99.90;;;;;;5081094;28;20856;-84
2023/11/05 07:15:37;;;;;;;9.00;8.80;;;10.10;99.90;;;;;;5079910;28;20458;-84
2023/11/05 07:18:06;;;;;;;9.70;9.50;;;10.10;99.90;;;;;;5077736;28;20482;-88
2023/11/05 07:20:36;;;;;;;9.00;8.83;;;10.20;1.00;;;;;;5083866;28;20664;-86
2023/11/05 07:23:04;;;;;;;9.50;9.30;;;10.50;1.00;;;;;;5082939;28;20873;-84
2023/11/05 07:25:33;;;;;;;9.70;9.50;;;10.70;99.90;;;;;;5085682;28;20455;-86
2023/11/05 07:28:03;;;;;;;9.95;9.75;;;10.80;99.90;;;;;;5076821;28;20524;-84
2023/11/05 07:30:31;;;;;;;9.50;9.30;;;10.90;43.40;;;;;;5081217;28;20716;-85
2023/11/05 07:33:02;;;;;;;9.53;9.33;;;11.10;1.00;;;;;;5077444;28;20455;-86
2023/11/05 07:35:31;;;;;;;9.10;8.90;;;11.00;1.00;;;;;;5076339;28;20471;-84
2023/11/05 07:38:00;;;;;;;9.07;8.90;;;10.80;1.00;;;;;;5077288;28;20443;-86
2023/11/05 07:40:28;;;;;;;9.10;9.00;;;10.90;1.00;;;;;;5077860;28;20576;-85
2023/11/05 07:42:58;;;;;;;9.40;9.30;;;11.00;1.00;;;;;;5084126;28;20471;-84
2023/11/05 07:45:27;;;;;;;9.60;9.40;;;11.30;1.00;;;;;;5078197;28;20455;-83
2023/11/05 07:47:55;;;;;;;9.00;8.90;;;11.50;1.00;;;;;;5076349;28;20487;-80
2023/11/05 07:50:25;;;;;;;9.30;9.10;;;11.50;1.00;;;;;;5072461;28;20475;-82
2023/11/05 07:52:54;;;;;;;9.40;9.30;;;11.60;1.00;;;;;;5077427;28;20442;-86
2023/11/05 07:55:23;;;;;;;9.40;9.30;;;11.70;1.00;;;;;;5074189;28;21239;-86
2023/11/05 07:57:51;;;;;;;9.00;8.90;;;11.90;1.00;;;;;;5074157;28;20810;-81
2023/11/05 08:00:20;;;;;;;9.70;9.57;;;11.90;1.00;;;;;;5073947;28;20471;-82
2023/11/05 08:02:49;;;;;;;9.60;9.50;;;11.70;1.00;;;;;;5074347;28;20470;-85
2023/11/05 08:05:18;;;;;;;9.73;9.43;;;11.60;1.00;;;;;;5076059;28;20454;-84
2023/11/05 08:07:48;;;;;;;10.63;10.07;;;11.60;1.00;;;;;;5071636;28;20463;-85
2023/11/05 08:10:17;;;;;;;10.00;9.80;;;11.40;1.00;;;;;;5081856;28;20549;-80
2023/11/05 08:12:46;;;;;;;9.73;9.63;;;11.50;99.90;;;;;;5071635;28;21197;-83
2023/11/05 08:15:15;;;;;;;10.47;10.00;;;11.70;1.00;;;;;;5070072;28;21017;-82
2023/11/05 08:17:43;;;;;;;10.10;9.90;;;11.70;1.00;;;;;;5072304;28;20473;-84
2023/11/05 08:20:14;;;;;;;10.30;10.10;;;11.70;1.00;;;;;;5077900;28;20478;-82
2023/11/05 08:22:43;;;;;;;9.80;9.60;;;11.50;1.00;;;;;;5076355;28;20474;-83
2023/11/05 08:25:14;;;;;;;10.00;9.80;;;11.40;99.90;;;;;;5074073;28;20463;-83
2023/11/05 08:27:43;;;;;;;9.90;9.80;;;11.30;99.90;;;;;;5080318;28;20434;-85
2023/11/05 08:30:13;;;;;;;10.80;10.60;;;11.30;99.90;;;;;;5073807;28;20548;-86
2023/11/05 08:32:42;;;;;;;9.93;9.83;;;11.40;99.90;;;;;;5076081;28;20451;-83
2023/11/05 08:35:11;;;;;;;9.90;9.70;;;11.50;99.90;;;;;;5079247;28;20809;-86
2023/11/05 08:37:40;;;;;;;10.00;9.80;;;11.60;99.90;;;;;;5081026;28;20480;-82
2023/11/05 08:40:13;;;;;;;10.10;9.90;;;11.80;54.90;;;;;;5078915;28;20466;-79
2023/11/05 08:42:44;;;;;;;10.00;9.90;;;11.90;1.00;;;;;;5075131;28;20474;-83
2023/11/05 08:45:15;;;;;;;10.40;10.20;;;11.90;1.00;;;;;;5078650;28;20978;-83
2023/11/05 08:47:43;;;;;;;10.87;10.67;;;12.00;1.00;;;;;;5079162;28;20464;-84
2023/11/05 08:50:15;;;;;;;10.93;10.63;;;11.80;1.00;;;;;;5077276;28;20979;-82
2023/11/05 08:52:45;;;;;;;10.50;10.30;;;11.70;1.00;;;;;;5072893;28;20466;-83
2023/11/05 08:55:13;;;;;;;11.30;11.00;;;11.60;1.00;;;;;;5082893;28;20458;-83
2023/11/05 08:57:42;;;;;;;10.40;10.20;;;11.60;1.00;;;;;;5079504;28;20447;-83
2023/11/05 09:00:12;;;;;;;10.60;10.40;;;11.80;1.00;;;;;;5078377;28;20486;-82
2023/11/05 09:02:41;;;;;;;10.33;10.13;;;12.10;1.00;;;;;;5079414;28;20461;-82
2023/11/05 09:05:10;;;;;;;10.47;9.90;;;12.40;1.00;;;;;;5078998;28;21110;-82
2023/11/05 09:07:38;;;;;;;10.70;10.40;;;12.20;1.00;;;;;;5076588;28;20462;-83
2023/11/05 09:10:09;;;;;;;9.90;9.70;;;12.20;1.00;;;;;;5077358;28;20569;-83
2023/11/05 09:12:38;;;;;;;10.70;10.50;;;12.20;1.00;;;;;;5080425;28;20457;-83
2023/11/05 09:15:08;;;;;;;11.15;10.77;;;12.40;1.00;;;;;;5076930;28;20441;-82
2023/11/05 09:17:39;;;;;;;10.60;10.40;;;12.60;1.00;;;;;;5076174;28;20201;-83
2023/11/05 09:20:10;;;;;;;10.50;10.30;;;12.50;1.00;;;;;;5075296;28;20470;-83
2023/11/05 09:22:39;;;;;;;10.10;10.00;;;12.40;1.00;;;;;;5077830;28;20467;-83
2023/11/05 09:25:08;;;;;;;10.30;10.10;;;12.40;1.00;;;;;;5080572;28;20455;-81
2023/11/05 09:27:37;;;;;;;10.10;9.90;;;12.50;1.00;;;;;;5077691;28;20456;-83
2023/11/05 09:30:11;;;;;;;9.60;9.50;;;12.70;1.00;;;;;;5076353;28;20474;-82
2023/11/05 09:32:43;;;;;;;10.20;10.00;;;12.80;1.00;;;;;;5078592;28;20975;-82
2023/11/05 09:35:13;;;;;;;10.10;9.90;;;12.90;1.00;;;;;;5080698;28;20447;-82
2023/11/05 09:37:43;;;;;;;10.00;9.80;;;12.80;99.90;;;;;;5077581;28;20940;-82
2023/11/05 09:40:15;;;;;;;9.80;9.60;;;12.50;1.00;;;;;;5078036;28;20470;-81
2023/11/05 09:42:49;;;;;;;9.80;9.60;;;12.20;1.00;;;;;;5078879;28;20566;-83
2023/11/05 09:45:18;;;;;;;10.00;9.80;;;12.10;1.00;;;;;;5081283;28;20450;-83
2023/11/05 09:47:48;;;;;;;10.60;10.30;;;11.90;1.00;;;;;;5077969;28;20458;-82
2023/11/05 09:50:17;;;;;;;10.77;10.57;;;11.80;1.00;;;;;;5078319;28;20490;-83
2023/11/05 09:52:46;;;;;;;10.60;10.40;;;12.10;1.00;;;;;;5076625;28;20448;-82
2023/11/05 09:55:14;;;;;;;10.60;10.40;;;12.30;1.00;;;;;;5072951;28;20459;-83
2023/11/05 09:57:43;;;;;;;10.90;10.70;;;12.40;1.00;;;;;;5075292;28;20447;-83
2023/11/05 10:00:12;;;;;;;10.40;10.20;;;12.20;1.00;;;;;;5081136;28;20489;-82
2023/11/05 10:02:58;;;;;;;10.60;10.40;;;12.00;1.00;;;;;;5080301;28;20466;-81
2023/11/05 10:05:28;;;;;;;11.30;11.00;;;11.90;54.50;;;;;;5070749;28;20509;-85
2023/11/05 10:07:56;;;;;;;11.43;11.03;;;11.70;99.90;;;;;;5075900;28;20438;-80
2023/11/05 10:10:26;;;;;;;11.00;10.80;;;12.10;99.90;;;;;;5080009;28;20474;-82
2023/11/05 10:12:54;;;;;;;10.80;10.60;;;12.20;99.90;;;;;;5073935;28;20466;-85
2023/11/05 10:15:24;;;;;;;10.70;10.50;;;12.10;99.90;;;;;;5077125;28;21062;-79
2023/11/05 10:17:54;;;;;;;10.80;10.60;;;11.80;99.90;;;;;;5070274;28;20469;-81
2023/11/05 10:20:23;;;;;;;11.70;11.30;;;11.80;1.00;;;;;;5079987;28;21026;-82
2023/11/05 10:23:02;;;;;;;11.60;11.40;;;12.30;99.90;;;;;;5073402;28;20475;-80
2023/11/05 10:25:31;;;;;;;11.57;11.37;;;13.40;31.60;;;;;;5076512;28;20458;-79
2023/11/05 10:28:00;;;;;;;12.73;11.60;;;14.70;1.00;;;;;;5077193;28;20482;-81
2023/11/05 10:30:31;;;;;;;11.20;11.00;;;15.00;99.90;;;;;;5075236;28;20485;-78
2023/11/05 10:33:03;;;;;;;10.80;10.60;;;14.50;99.90;;;;;;5079647;28;20457;-79
2023/11/05 10:35:33;;;;;;;10.70;10.50;;;14.10;99.90;;;;;;5076774;28;20453;-81
2023/11/05 10:38:02;;;;;;;12.80;12.40;;;15.10;99.90;;;;;;5072781;28;20479;-81
2023/11/05 10:40:31;;;;;;;10.70;10.50;;;15.00;99.90;;;;;;5077070;28;20498;-81
2023/11/05 10:43:00;;;;;;;10.60;10.40;;;15.20;99.90;;;;;;5075461;28;21133;-83
2023/11/05 10:45:31;;;;;;;10.50;10.30;;;15.10;99.90;;;;;;5081381;28;20455;-80
2023/11/05 10:48:03;;;;;;;11.33;10.90;;;14.60;99.90;;;;;;5080159;28;20508;-84
2023/11/05 10:50:32;;;;;;;10.70;10.50;;;13.90;99.90;;;;;;5079426;28;20470;-81
2023/11/05 10:53:06;;;;;;;10.80;10.60;;;13.50;99.90;;;;;;5075153;28;21252;-81
2023/11/05 10:55:35;;;;;;;10.80;10.60;;;13.20;99.90;;;;;;5075702;28;20490;-80
2023/11/05 10:58:06;;;;;;;11.00;10.80;;;13.20;99.90;;;;;;5076120;28;20453;-79
2023/11/05 11:00:55;;;;;;;10.80;10.60;;;13.20;1.00;;;;;;5075875;28;20474;-79
2023/11/05 11:03:26;;;;;;;10.60;10.30;;;13.60;1.00;;;;;;5077830;28;20587;-81
2023/11/05 11:06:05;;;;;;;10.23;10.07;;;13.70;99.90;;;;;;5078244;28;20553;-80
2023/11/05 11:08:36;;;;;;;10.20;10.00;;;13.80;99.90;;;;;;5073350;28;20472;-83
2023/11/05 11:11:15;;;;;;;9.70;9.50;;;13.70;99.90;;;;;;5076013;28;20486;-84
2023/11/05 11:13:49;;;;;;;9.80;9.60;;;13.20;99.90;;;;;;5076376;28;21239;-80
2023/11/05 11:16:22;;;;;;;10.27;10.07;;;12.90;1.00;;;;;;5074273;28;20443;-84
2023/11/05 11:18:54;;;;;;;10.47;10.27;;;12.80;1.00;;;;;;5073993;28;20455;-81
2023/11/05 11:21:23;;;;;;;10.20;10.00;;;12.80;1.00;;;;;;5077829;28;20512;-82
2023/11/05 11:23:52;;;;;;;9.90;9.70;;;12.80;1.00;;;;;;5074734;28;20470;-83
2023/11/05 11:26:25;;;;;;;10.23;10.00;;;12.70;1.00;;;;;;5078578;28;20468;-80
2023/11/05 11:28:57;;;;;;;10.80;10.60;;;12.70;13.40;;;;;;5077503;28;20826;-82
2023/11/05 11:31:26;;;;;;;10.70;10.40;;;12.50;1.00;;;;;;5077246;28;21217;-82
2023/11/05 11:33:56;;;;;;;10.90;10.70;;;12.40;99.90;;;;;;5074602;28;20449;-83
2023/11/05 11:36:24;;;;;;;10.90;10.70;;;12.40;99.90;;;;;;5073694;28;20490;-84
2023/11/05 11:38:53;;;;;;;10.60;10.40;;;12.50;24.40;;;;;;5076047;28;21037;-83
2023/11/05 11:41:21;;;;;;;10.70;10.50;;;12.50;55.10;;;;;;5076656;28;20482;-82
2023/11/05 11:43:49;;;;;;;11.50;11.30;;;12.70;1.00;;;;;;5074663;28;20485;-83
2023/11/05 11:46:22;;;;;;;11.10;10.90;;;12.60;6.20;;;;;;5078129;28;20550;-81
2023/11/05 11:48:51;;;;;;;11.27;10.97;;;12.60;16.20;;;;;;5073458;28;20459;-83
2023/11/05 11:51:22;;;;;;;10.60;10.30;;;12.60;55.10;;;;;;5068835;28;20642;-81
2023/11/05 11:53:50;;;;;;;10.23;9.93;;;12.60;88.70;;;;;;5071218;28;21001;-82
2023/11/05 11:56:19;;;;;;;10.37;10.17;;;12.50;99.90;;;;;;5071563;28;20462;-81
2023/11/05 11:58:47;;;;;;;10.60;10.40;;;12.50;99.90;;;;;;5074942;28;20508;-81
2023/11/05 12:01:17;;;;;;;11.00;10.80;;;12.70;99.90;;;;;;5068454;28;20565;-81
2023/11/05 12:03:46;;;;;;;10.67;10.47;;;12.60;99.90;;;;;;5076785;28;20491;-83
2023/11/05 12:06:15;;;;;;;10.60;10.40;;;12.50;99.90;;;;;;5072435;28;20537;-80
2023/11/05 12:08:46;;;;;;;10.50;10.30;;;12.60;99.90;;;;;;5067266;28;20930;-80
2023/11/05 12:11:16;;;;;;;10.83;10.63;;;12.70;55.30;;;;;;5074192;28;20239;-82
2023/11/05 12:13:46;;;;;;;10.80;10.60;;;12.60;54.90;;;;;;5070709;28;20504;-81
2023/11/05 12:16:17;;;;;;;10.90;10.60;;;12.50;45.40;;;;;;5070092;28;20450;-80
2023/11/05 12:18:46;;;;;;;10.50;10.30;;;12.20;90.30;;;;;;5073080;28;20504;-80
2023/11/05 12:21:15;;;;;;;11.10;10.80;;;12.20;99.90;;;;;;5072222;28;20480;-80
2023/11/05 12:23:48;;;;;;;11.83;11.47;;;12.20;99.90;;;;;;5071477;28;20549;-82
2023/11/05 12:26:17;;;;;;;10.80;10.60;;;12.10;99.90;;;;;;5071845;28;20465;-79
2023/11/05 12:28:46;;;;;;;10.60;10.40;;;12.00;1.00;;;;;;5073303;28;20470;-79
2023/11/05 12:31:15;;;;;;;11.10;10.90;;;12.00;99.90;;;;;;5072710;28;20517;-80
2023/11/05 12:33:45;;;;;;;10.90;10.70;;;12.00;99.90;;;;;;5071159;28;20450;-80
2023/11/05 12:36:14;;;;;;;11.10;10.90;;;12.10;1.00;;;;;;5072668;28;20457;-81
2023/11/05 12:38:45;;;;;;;10.90;10.70;;;12.20;99.90;;;;;;5072565;28;20532;-80
2023/11/05 12:41:13;;;;;;;11.20;10.90;;;12.30;99.90;;;;;;5066380;28;20506;-80
2023/11/05 12:43:41;;;;;;;11.20;11.00;;;12.40;1.00;;;;;;5074017;28;20979;-77
2023/11/05 12:46:10;;;;;;;11.90;11.60;;;12.40;1.00;;;;;;5073268;28;21122;-78
2023/11/05 12:48:38;;;;;;;12.10;11.70;;;12.50;1.00;;;;;;5071345;28;20537;-81
2023/11/05 12:51:06;;;;;;;11.57;11.30;;;12.50;1.00;;;;;;5068921;28;20505;-78
2023/11/05 12:53:35;;;;;;;12.35;12.05;;;12.40;1.00;;;;;;5081179;28;20958;-82
2023/11/05 12:56:06;;;;;;;11.60;11.40;;;12.40;1.00;;;;;;5075063;28;20216;-80
2023/11/05 12:58:36;;;;;;;12.70;12.30;;;12.30;99.90;;;;;;5072860;28;20584;-79